Time;durP1;ratioP1;P1;durP2;ratioP2;P2;SDS_P1;SDS_P2;PMS_P1;PMS_P2;Temp;Humidity;BMP_temperature;BMP_pressure;BME280_temperature;BME280_humidity;BME280_pressure;Samples;Min_cycle;Max_cycle;Signal;HPM_P1;HPM_P2
2021/06/18 00:02:19;;;;;;;5.95;5.32;;;19.90;76.50;;;;;;5032122;28;20411;-49
2021/06/18 00:04:44;;;;;;;6.95;5.00;;;19.90;76.70;;;;;;5032341;28;20489;-50
2021/06/18 00:07:10;;;;;;;5.10;4.60;;;19.90;77.00;;;;;;5031904;28;20607;-47
2021/06/18 00:09:37;;;;;;;5.55;4.97;;;19.80;76.90;;;;;;5031181;28;20029;-46
2021/06/18 00:12:05;;;;;;;7.50;5.50;;;19.80;77.20;;;;;;5031817;28;20481;-49
2021/06/18 00:14:31;;;;;;;6.13;5.18;;;19.70;77.50;;;;;;5031935;28;20068;-48
2021/06/18 00:16:56;;;;;;;5.32;4.82;;;19.70;78.20;;;;;;5031869;28;20065;-47
2021/06/18 00:19:21;;;;;;;6.20;4.95;;;19.60;79.00;;;;;;5032348;28;20101;-51
2021/06/18 00:21:47;;;;;;;5.47;4.38;;;19.60;79.50;;;;;;5035538;28;20030;-47
2021/06/18 00:24:13;;;;;;;4.53;4.13;;;19.60;79.70;;;;;;5034664;28;20154;-47
2021/06/18 00:26:39;;;;;;;5.07;4.57;;;19.50;80.40;;;;;;5035924;28;20492;-48
2021/06/18 00:29:04;;;;;;;6.22;5.32;;;19.40;81.00;;;;;;5035674;28;20026;-52
2021/06/18 00:31:30;;;;;;;7.13;5.18;;;19.30;82.00;;;;;;5035688;28;20040;-50
2021/06/18 00:33:55;;;;;;;6.20;5.00;;;19.20;83.20;;;;;;5035569;28;20056;-51
2021/06/18 00:36:21;;;;;;;6.82;5.95;;;19.10;84.10;;;;;;5035396;28;20512;-49
2021/06/18 00:38:46;;;;;;;6.72;5.47;;;19.10;85.20;;;;;;5034150;28;20029;-53
2021/06/18 00:41:12;;;;;;;8.13;5.60;;;19.00;86.60;;;;;;5035564;28;20477;-46
2021/06/18 00:43:37;;;;;;;7.60;5.40;;;18.90;87.30;;;;;;5035408;28;20022;-47
2021/06/18 00:46:03;;;;;;;5.13;4.60;;;18.90;88.40;;;;;;5035483;28;20438;-53
2021/06/18 00:48:32;;;;;;;6.35;5.38;;;18.80;90.10;;;;;;5035272;28;20052;-52
2021/06/18 00:50:57;;;;;;;4.75;4.35;;;18.70;90.30;;;;;;5035478;28;20033;-52
2021/06/18 00:53:23;;;;;;;6.57;4.70;;;18.60;90.60;;;;;;5034050;28;20393;-54
2021/06/18 00:55:49;;;;;;;6.28;5.38;;;18.50;91.10;;;;;;5035334;28;20113;-53
2021/06/18 00:58:15;;;;;;;6.32;4.97;;;18.50;91.80;;;;;;5034983;28;20112;-54
2021/06/18 01:00:42;;;;;;;5.03;4.53;;;18.40;92.20;;;;;;5035072;28;20404;-50
2021/06/18 01:03:07;;;;;;;6.07;5.18;;;18.40;93.00;;;;;;5035062;28;20032;-51
2021/06/18 01:05:33;;;;;;;6.45;5.85;;;18.30;93.60;;;;;;5035045;28;20100;-49
2021/06/18 01:08:21;;;;;;;9.77;5.95;;;18.20;94.00;;;;;;5034709;28;20129;-53
2021/06/18 01:11:07;;;;;;;8.02;6.10;;;18.20;94.70;;;;;;5034975;28;20557;-49
2021/06/18 01:14:01;;;;;;;5.88;5.28;;;18.10;95.60;;;;;;5034760;28;20465;-50
2021/06/18 01:16:53;;;;;;;7.50;5.35;;;18.10;96.60;;;;;;5034724;28;20420;-51
2021/06/18 01:19:28;;;;;;;8.05;6.07;;;18.00;98.00;;;;;;5034210;28;20544;-53
2021/06/18 01:21:59;;;;;;;5.97;5.38;;;18.00;97.10;;;;;;5034870;28;20044;-52
2021/06/18 01:24:34;;;;;;;7.45;5.80;;;18.00;96.80;;;;;;5033488;28;20075;-50
2021/06/18 01:27:33;;;;;;;6.40;5.80;;;17.90;97.50;;;;;;5034791;28;20029;-52
2021/06/18 01:30:07;;;;;;;6.35;5.63;;;17.90;99.00;;;;;;5034667;28;20022;-51
2021/06/18 01:32:37;;;;;;;7.63;6.38;;;17.80;98.60;;;;;;5033401;28;20021;-50
2021/06/18 01:35:05;;;;;;;7.55;6.68;;;17.80;98.60;;;;;;5033187;28;20516;-51
2021/06/18 01:37:33;;;;;;;6.78;5.93;;;17.80;99.00;;;;;;5033075;28;20273;-53
2021/06/18 01:40:04;;;;;;;10.20;6.40;;;17.80;99.30;;;;;;5033575;28;20049;-50
2021/06/18 01:42:34;;;;;;;6.55;5.95;;;17.90;99.90;;;;;;5034258;28;20075;-49
2021/06/18 01:45:00;;;;;;;8.15;7.07;;;17.90;99.50;;;;;;5034447;28;20018;-49
2021/06/18 01:47:26;;;;;;;8.52;6.90;;;17.90;99.60;;;;;;5034082;28;20025;-47
2021/06/18 01:49:53;;;;;;;8.13;6.25;;;17.90;99.70;;;;;;5034274;28;20491;-54
2021/06/18 01:52:20;;;;;;;6.88;6.00;;;17.90;99.50;;;;;;5034103;28;20057;-52
2021/06/18 01:54:47;;;;;;;6.10;5.47;;;17.80;99.70;;;;;;5033208;28;20025;-52
2021/06/18 01:57:14;;;;;;;6.72;5.93;;;17.70;99.90;;;;;;5034129;28;20535;-51
2021/06/18 01:59:41;;;;;;;7.55;6.18;;;17.60;99.90;;;;;;5033802;28;20025;-52
2021/06/18 02:02:08;;;;;;;8.55;6.63;;;17.60;99.90;;;;;;5033924;28;20477;-54
2021/06/18 02:04:36;;;;;;;12.13;6.88;;;17.60;99.90;;;;;;5033764;28;20048;-51
2021/06/18 02:07:03;;;;;;;5.55;5.00;;;17.50;99.90;;;;;;5034042;28;20484;-52
2021/06/18 02:09:32;;;;;;;7.93;6.30;;;17.40;99.90;;;;;;5032648;28;20033;-53
2021/06/18 02:11:57;;;;;;;7.15;6.03;;;17.40;99.90;;;;;;5033904;28;20025;-51
2021/06/18 02:14:27;;;;;;;8.68;7.10;;;17.30;99.90;;;;;;5033723;28;20488;-50
2021/06/18 02:16:55;;;;;;;6.88;6.25;;;17.30;99.90;;;;;;5033703;28;20029;-51
2021/06/18 02:19:22;;;;;;;8.88;7.07;;;17.20;99.90;;;;;;5033431;28;20385;-51
2021/06/18 02:21:50;;;;;;;7.63;6.53;;;17.20;99.90;;;;;;5033666;28;20519;-52
2021/06/18 02:24:19;;;;;;;8.00;6.50;;;17.20;99.90;;;;;;5032562;28;20037;-52
2021/06/18 02:26:46;;;;;;;8.88;7.35;;;17.20;99.90;;;;;;5033547;28;20348;-53
2021/06/18 02:29:12;;;;;;;12.52;7.18;;;17.20;99.90;;;;;;5033326;28;20527;-50
2021/06/18 02:31:38;;;;;;;10.32;7.32;;;17.30;99.90;;;;;;5033486;28;20112;-50
2021/06/18 02:34:06;;;;;;;7.60;6.80;;;17.40;99.90;;;;;;5033489;28;20140;-53
2021/06/18 02:36:33;;;;;;;9.75;7.57;;;17.50;99.90;;;;;;5033084;28;20026;-49
2021/06/18 02:38:58;;;;;;;7.47;6.60;;;17.50;99.90;;;;;;5031164;28;20025;-52
2021/06/18 02:41:24;;;;;;;10.25;8.00;;;17.50;99.90;;;;;;5033201;28;20032;-50
2021/06/18 02:43:49;;;;;;;9.90;6.47;;;17.50;99.90;;;;;;5032801;28;20026;-53
2021/06/18 02:46:36;;;;;;;9.15;8.05;;;17.60;99.90;;;;;;5033356;28;20025;-52
2021/06/18 02:49:06;;;;;;;8.32;7.53;;;17.70;99.90;;;;;;5033178;28;20032;-52
2021/06/18 02:51:57;;;;;;;8.05;7.25;;;17.70;99.90;;;;;;5033160;28;20060;-51
2021/06/18 02:54:32;;;;;;;10.60;8.50;;;17.80;99.90;;;;;;5031900;28;20032;-52
2021/06/18 02:57:02;;;;;;;7.80;6.80;;;17.90;99.90;;;;;;5032626;28;20101;-51
2021/06/18 02:59:40;;;;;;;8.75;6.97;;;18.00;99.90;;;;;;5032624;28;20055;-54
2021/06/18 03:02:09;;;;;;;9.10;7.65;;;18.00;99.90;;;;;;5033051;28;20406;-53
2021/06/18 03:04:39;;;;;;;9.70;7.22;;;18.10;99.90;;;;;;5032697;28;20022;-54
2021/06/18 03:07:14;;;;;;;10.45;8.02;;;18.10;99.90;;;;;;5032968;28;20025;-52
2021/06/18 03:09:49;;;;;;;9.60;8.18;;;18.20;99.90;;;;;;5031765;28;20131;-52
2021/06/18 03:12:17;;;;;;;11.05;8.60;;;18.20;99.90;;;;;;5032773;28;20416;-49
2021/06/18 03:14:45;;;;;;;7.95;6.97;;;18.20;99.90;;;;;;5032557;28;20442;-53
2021/06/18 03:17:17;;;;;;;9.52;7.25;;;18.30;99.90;;;;;;5032530;28;20044;-50
2021/06/18 03:19:46;;;;;;;9.77;7.60;;;18.30;99.90;;;;;;5032594;28;20057;-50
2021/06/18 03:22:15;;;;;;;8.32;6.55;;;18.30;99.90;;;;;;5032734;28;20473;-51
2021/06/18 03:24:42;;;;;;;9.75;7.05;;;18.40;99.90;;;;;;5031560;28;20417;-53
2021/06/18 03:27:10;;;;;;;9.80;8.75;;;18.40;99.90;;;;;;5032526;28;20029;-49
2021/06/18 03:29:38;;;;;;;7.75;6.65;;;18.50;99.90;;;;;;5032281;28;20026;-53
2021/06/18 03:32:05;;;;;;;8.05;7.18;;;18.50;99.90;;;;;;5032589;28;20038;-48
2021/06/18 03:34:32;;;;;;;11.23;7.93;;;18.60;99.90;;;;;;5032376;28;20024;-48
2021/06/18 03:36:59;;;;;;;14.43;8.27;;;18.60;99.90;;;;;;5032374;28;20481;-50
2021/06/18 03:39:25;;;;;;;10.07;7.93;;;18.80;99.90;;;;;;5031278;28;20061;-51
2021/06/18 03:41:51;;;;;;;7.55;6.85;;;19.40;99.60;;;;;;5031048;28;20567;-51
2021/06/18 03:44:19;;;;;;;8.88;7.97;;;20.50;96.20;;;;;;5031030;28;20038;-50
2021/06/18 03:46:46;;;;;;;8.73;7.75;;;21.50;92.30;;;;;;5032371;28;20067;-52
2021/06/18 03:49:12;;;;;;;8.25;7.43;;;22.40;88.60;;;;;;5032216;28;20444;-45
2021/06/18 03:51:38;;;;;;;10.98;7.97;;;23.20;83.60;;;;;;5032291;28;20036;-52
2021/06/18 03:54:05;;;;;;;7.25;6.13;;;23.80;79.70;;;;;;5030099;28;20021;-51
2021/06/18 03:56:31;;;;;;;7.60;6.70;;;24.50;77.40;;;;;;5035735;28;20025;-52
2021/06/18 03:58:58;;;;;;;7.28;6.57;;;25.10;74.90;;;;;;5036163;28;20024;-52
2021/06/18 04:01:26;;;;;;;8.38;7.57;;;25.70;72.80;;;;;;5034967;28;20140;-53
2021/06/18 04:03:53;;;;;;;7.35;6.63;;;26.20;71.50;;;;;;5036033;28;20022;-54
2021/06/18 04:06:19;;;;;;;10.98;6.90;;;26.60;70.10;;;;;;5036259;28;20029;-50
2021/06/18 04:08:46;;;;;;;8.10;6.65;;;27.20;68.80;;;;;;5035084;28;20477;-52
2021/06/18 04:11:13;;;;;;;7.03;6.30;;;27.80;67.30;;;;;;5032345;28;20072;-53
2021/06/18 04:13:40;;;;;;;7.35;6.32;;;28.30;66.30;;;;;;5035482;28;20026;-52
2021/06/18 04:16:10;;;;;;;7.88;6.45;;;28.60;64.70;;;;;;5035833;28;20030;-54
2021/06/18 04:18:39;;;;;;;7.25;6.55;;;28.80;63.40;;;;;;5035656;28;20022;-51
2021/06/18 04:21:08;;;;;;;12.25;7.05;;;29.20;62.70;;;;;;5035909;28;20025;-49
2021/06/18 04:23:33;;;;;;;7.40;6.22;;;29.50;62.20;;;;;;5034517;28;20081;-54
2021/06/18 04:26:00;;;;;;;7.63;6.57;;;29.90;61.30;;;;;;5035527;28;20033;-53
2021/06/18 04:28:27;;;;;;;7.25;6.05;;;30.10;59.70;;;;;;5039970;28;20063;-51
2021/06/18 04:30:52;;;;;;;6.85;6.25;;;30.50;59.80;;;;;;5055493;28;20025;-52
2021/06/18 04:33:18;;;;;;;10.93;6.85;;;30.90;58.50;;;;;;5055457;28;20127;-55
2021/06/18 04:35:45;;;;;;;6.70;6.00;;;31.00;57.90;;;;;;5048599;28;20036;-51
2021/06/18 04:38:11;;;;;;;7.47;6.70;;;31.50;57.60;;;;;;5034897;28;20021;-54
2021/06/18 04:40:36;;;;;;;8.13;6.38;;;31.90;56.50;;;;;;5035329;28;20029;-50
2021/06/18 04:43:02;;;;;;;7.55;6.35;;;32.30;55.90;;;;;;5035466;28;20033;-49
2021/06/18 04:45:28;;;;;;;7.20;6.45;;;32.50;54.60;;;;;;5035426;28;20481;-51
2021/06/18 04:47:55;;;;;;;7.25;5.97;;;32.70;54.50;;;;;;5035425;28;20021;-50
2021/06/18 04:50:21;;;;;;;6.97;6.40;;;33.30;54.00;;;;;;5035342;28;20028;-49
2021/06/18 04:52:47;;;;;;;7.70;6.90;;;33.80;52.80;;;;;;5035610;28;20492;-55
2021/06/18 04:55:17;;;;;;;6.82;6.22;;;34.00;51.60;;;;;;5034180;28;20093;-55
2021/06/18 04:57:48;;;;;;;8.27;7.32;;;34.00;51.20;;;;;;5035025;28;20021;-54
2021/06/18 05:00:15;;;;;;;8.95;6.20;;;33.90;50.20;;;;;;5035061;28;20064;-50
2021/06/18 05:02:41;;;;;;;9.35;6.60;;;33.80;50.60;;;;;;5035004;28;20029;-51
2021/06/18 05:05:07;;;;;;;8.35;6.38;;;34.20;50.40;;;;;;5035106;28;20550;-52
2021/06/18 05:07:32;;;;;;;6.70;6.07;;;34.30;49.60;;;;;;5035085;28;20121;-49
2021/06/18 05:09:58;;;;;;;7.55;6.22;;;34.60;49.40;;;;;;5033778;28;20318;-53
2021/06/18 05:12:23;;;;;;;7.82;6.20;;;34.90;48.20;;;;;;5031490;28;20025;-55
2021/06/18 05:14:49;;;;;;;8.50;6.70;;;34.80;48.40;;;;;;5033127;28;20060;-53
2021/06/18 05:17:15;;;;;;;7.80;6.63;;;35.30;47.90;;;;;;5033327;28;20090;-54
2021/06/18 05:19:41;;;;;;;8.10;6.38;;;35.40;47.50;;;;;;5034499;28;20049;-55
2021/06/18 05:22:06;;;;;;;10.27;6.70;;;36.00;47.30;;;;;;5034713;28;20437;-55
2021/06/18 05:24:32;;;;;;;9.63;6.47;;;36.40;45.90;;;;;;5033514;28;20017;-53
2021/06/18 05:26:58;;;;;;;6.88;5.57;;;36.70;46.40;;;;;;5034675;28;20477;-54
2021/06/18 05:29:23;;;;;;;7.07;6.00;;;37.00;45.70;;;;;;5046724;28;20508;-51
2021/06/18 05:31:49;;;;;;;7.95;6.30;;;37.30;45.30;;;;;;5054485;28;20029;-51
2021/06/18 05:34:14;;;;;;;10.05;5.45;;;37.80;44.90;;;;;;5054431;28;20028;-51
2021/06/18 05:36:44;;;;;;;7.45;6.50;;;38.10;44.90;;;;;;5039651;28;20033;-52
2021/06/18 05:39:13;;;;;;;6.75;5.80;;;38.40;43.70;;;;;;5033316;28;20022;-48
2021/06/18 05:41:39;;;;;;;7.82;6.47;;;38.60;43.10;;;;;;5034489;28;20029;-53
2021/06/18 05:44:05;;;;;;;5.20;4.70;;;38.80;43.00;;;;;;5034202;28;20053;-54
2021/06/18 05:46:31;;;;;;;6.78;6.07;;;38.70;42.80;;;;;;5034340;28;20022;-53
2021/06/18 05:48:57;;;;;;;6.47;5.88;;;39.10;42.40;;;;;;5034156;28;20044;-53
2021/06/18 05:51:22;;;;;;;5.60;5.05;;;39.10;42.20;;;;;;5034357;28;20108;-54
2021/06/18 05:53:48;;;;;;;5.93;5.35;;;39.30;42.70;;;;;;5032939;28;20057;-52
2021/06/18 05:56:13;;;;;;;6.18;5.20;;;39.20;41.50;;;;;;5033737;28;20465;-54
2021/06/18 05:58:39;;;;;;;8.55;5.80;;;39.00;41.60;;;;;;5034088;28;20047;-53
2021/06/18 06:01:04;;;;;;;6.20;5.60;;;39.10;41.40;;;;;;5033274;28;20056;-51
2021/06/18 06:03:30;;;;;;;4.88;4.53;;;38.90;41.40;;;;;;5033848;28;20062;-54
2021/06/18 06:05:56;;;;;;;7.18;5.72;;;38.90;41.20;;;;;;5033500;28;20033;-55
2021/06/18 06:08:21;;;;;;;8.30;5.35;;;39.20;41.10;;;;;;5032928;28;20044;-51
2021/06/18 06:10:48;;;;;;;5.55;4.70;;;39.30;40.80;;;;;;5032887;28;20041;-52
2021/06/18 06:13:15;;;;;;;5.03;4.63;;;39.80;40.60;;;;;;5033901;28;20060;-52
2021/06/18 06:15:41;;;;;;;8.60;5.00;;;40.10;40.10;;;;;;5033196;28;20025;-55
2021/06/18 06:18:06;;;;;;;5.22;4.43;;;40.40;39.70;;;;;;5033138;28;20029;-52
2021/06/18 06:20:32;;;;;;;5.68;4.35;;;41.00;39.60;;;;;;5033174;28;20068;-51
2021/06/18 06:22:58;;;;;;;5.03;4.53;;;41.50;39.20;;;;;;5033385;28;20036;-51
2021/06/18 06:25:24;;;;;;;5.72;5.13;;;41.70;38.50;;;;;;5032392;28;20033;-53
2021/06/18 06:27:49;;;;;;;4.43;4.03;;;41.80;38.30;;;;;;5033609;28;20033;-52
2021/06/18 06:30:15;;;;;;;7.07;4.43;;;41.90;38.10;;;;;;5042708;28;20492;-54
2021/06/18 06:32:40;;;;;;;7.07;4.13;;;41.50;38.10;;;;;;5033487;28;20061;-53
2021/06/18 06:35:06;;;;;;;4.78;4.38;;;41.80;38.10;;;;;;5032988;28;20061;-49
2021/06/18 06:37:32;;;;;;;5.55;4.50;;;41.70;37.90;;;;;;5033065;28;20500;-53
2021/06/18 06:39:57;;;;;;;4.22;3.75;;;41.80;37.70;;;;;;5031469;28;20034;-51
2021/06/18 06:42:23;;;;;;;6.22;4.35;;;42.40;37.70;;;;;;5033286;28;20196;-51
2021/06/18 06:44:49;;;;;;;5.88;4.63;;;42.50;37.10;;;;;;5033274;28;20449;-52
2021/06/18 06:47:14;;;;;;;6.35;3.80;;;42.80;36.50;;;;;;5032928;28;20034;-52
2021/06/18 06:49:40;;;;;;;4.45;4.05;;;42.40;36.40;;;;;;5032898;28;20063;-53
2021/06/18 06:52:06;;;;;;;4.40;4.10;;;42.60;36.70;;;;;;5031522;28;20473;-55
2021/06/18 06:54:31;;;;;;;4.03;3.72;;;42.90;36.20;;;;;;5031886;28;20116;-54
2021/06/18 06:56:57;;;;;;;5.53;3.75;;;43.10;35.70;;;;;;5032730;28;20025;-51
2021/06/18 06:59:23;;;;;;;5.60;4.18;;;43.50;34.90;;;;;;5032901;28;20021;-55
2021/06/18 07:01:48;;;;;;;4.63;3.80;;;43.70;34.90;;;;;;5032337;28;20545;-49
2021/06/18 07:04:14;;;;;;;4.20;3.80;;;44.00;34.90;;;;;;5032848;28;20037;-49
2021/06/18 07:06:40;;;;;;;4.50;3.92;;;44.10;34.30;;;;;;5032613;28;20033;-55
2021/06/18 07:09:06;;;;;;;3.92;3.50;;;44.00;33.90;;;;;;5031703;28;20109;-48
2021/06/18 07:11:32;;;;;;;4.55;3.53;;;44.10;33.90;;;;;;5032742;28;20057;-53
2021/06/18 07:13:57;;;;;;;4.05;3.30;;;43.80;33.60;;;;;;5032668;28;20044;-53
2021/06/18 07:16:24;;;;;;;4.45;3.97;;;44.00;33.90;;;;;;5032418;28;20036;-52
2021/06/18 07:18:49;;;;;;;3.78;3.28;;;44.00;33.10;;;;;;5032614;28;20028;-55
2021/06/18 07:21:15;;;;;;;3.95;3.55;;;44.00;33.00;;;;;;5032485;28;20448;-53
2021/06/18 07:23:40;;;;;;;4.80;3.33;;;43.80;32.30;;;;;;5031723;28;20028;-49
2021/06/18 07:26:06;;;;;;;3.55;2.90;;;43.60;32.60;;;;;;5032461;28;20064;-52
2021/06/18 07:28:32;;;;;;;3.78;3.30;;;43.30;33.00;;;;;;5037748;28;20369;-54
2021/06/18 07:30:57;;;;;;;4.35;2.97;;;44.00;32.90;;;;;;5051456;28;20025;-50
2021/06/18 07:33:23;;;;;;;3.20;2.95;;;44.10;32.20;;;;;;5052344;28;20025;-53
2021/06/18 07:35:48;;;;;;;5.85;4.00;;;44.20;32.30;;;;;;5044653;28;20033;-51
2021/06/18 07:38:14;;;;;;;3.53;3.22;;;44.20;31.60;;;;;;5031534;28;20662;-52
2021/06/18 07:40:40;;;;;;;5.43;2.85;;;44.10;31.70;;;;;;5032419;28;20511;-50
2021/06/18 07:43:06;;;;;;;3.28;2.90;;;44.00;31.70;;;;;;5032356;28;20377;-53
2021/06/18 07:45:31;;;;;;;4.75;3.22;;;44.00;31.80;;;;;;5032264;28;20113;-50
2021/06/18 07:47:57;;;;;;;4.15;3.17;;;44.10;31.60;;;;;;5032160;28;20128;-50
2021/06/18 07:50:23;;;;;;;3.25;2.95;;;44.40;31.30;;;;;;5032296;28;20079;-52
2021/06/18 07:52:49;;;;;;;5.53;3.55;;;44.70;31.00;;;;;;5032203;28;20063;-53
2021/06/18 07:55:18;;;;;;;4.00;3.38;;;44.50;30.90;;;;;;5031295;28;20088;-52
2021/06/18 07:57:43;;;;;;;3.55;3.08;;;44.90;30.90;;;;;;5032206;28;20477;-48
2021/06/18 08:00:10;;;;;;;3.20;2.90;;;44.90;30.60;;;;;;5032000;28;20061;-49
2021/06/18 08:02:35;;;;;;;3.60;3.13;;;45.50;30.80;;;;;;5032271;28;20357;-51
2021/06/18 08:05:01;;;;;;;3.42;2.60;;;45.30;30.40;;;;;;5039318;28;20044;-52
2021/06/18 08:07:26;;;;;;;5.13;2.80;;;45.30;30.40;;;;;;5052148;28;20033;-50
2021/06/18 08:09:53;;;;;;;4.80;2.70;;;45.30;30.40;;;;;;5030952;28;20195;-54
2021/06/18 08:12:20;;;;;;;4.07;2.50;;;45.90;30.40;;;;;;5032046;28;20033;-56
2021/06/18 08:14:46;;;;;;;2.80;2.50;;;45.90;29.90;;;;;;5032095;28;20494;-53
2021/06/18 08:17:11;;;;;;;4.00;2.63;;;46.30;30.20;;;;;;5031887;28;20033;-54
2021/06/18 08:19:37;;;;;;;3.95;2.50;;;46.10;29.90;;;;;;5032082;28;20108;-53
2021/06/18 08:22:04;;;;;;;4.30;2.72;;;45.90;29.70;;;;;;5031867;28;20028;-50
2021/06/18 08:24:30;;;;;;;3.88;2.33;;;45.90;30.00;;;;;;5031229;28;20438;-53
2021/06/18 08:26:56;;;;;;;2.40;2.20;;;45.90;30.00;;;;;;5031814;28;20064;-52
2021/06/18 08:29:22;;;;;;;5.68;3.08;;;45.70;29.80;;;;;;5044139;28;20472;-52
2021/06/18 08:31:47;;;;;;;3.28;2.40;;;45.50;29.80;;;;;;5037249;28;20033;-53
2021/06/18 08:34:13;;;;;;;2.58;2.38;;;45.20;30.00;;;;;;5030647;28;20108;-51
2021/06/18 08:36:39;;;;;;;5.20;2.35;;;45.60;30.20;;;;;;5031682;28;20079;-53
2021/06/18 08:39:06;;;;;;;6.53;2.85;;;46.10;29.80;;;;;;5029741;28;20017;-50
2021/06/18 08:41:31;;;;;;;2.83;2.63;;;45.80;29.40;;;;;;5033225;28;20029;-51
2021/06/18 08:43:57;;;;;;;3.45;2.53;;;45.60;29.10;;;;;;5035552;28;20029;-48
2021/06/18 08:46:23;;;;;;;4.05;3.00;;;44.80;29.40;;;;;;5034827;28;20052;-51
2021/06/18 08:48:49;;;;;;;8.43;2.95;;;44.30;29.60;;;;;;5033667;28;20033;-48
2021/06/18 08:51:15;;;;;;;2.97;2.53;;;44.10;29.90;;;;;;5037980;28;20485;-53
2021/06/18 08:53:42;;;;;;;5.10;3.10;;;43.80;30.30;;;;;;5033568;28;20381;-54
2021/06/18 08:56:08;;;;;;;4.78;2.60;;;43.80;29.80;;;;;;5034994;28;20053;-49
2021/06/18 08:58:34;;;;;;;3.65;2.83;;;44.00;30.00;;;;;;5035316;28;20025;-53
2021/06/18 09:01:00;;;;;;;3.38;3.08;;;44.20;29.90;;;;;;5034846;28;20048;-52
2021/06/18 09:03:47;;;;;;;4.55;2.60;;;44.30;29.90;;;;;;5034898;28;20384;-55
2021/06/18 09:06:32;;;;;;;5.47;2.60;;;44.10;29.80;;;;;;5034904;28;20033;-49
2021/06/18 09:09:16;;;;;;;5.47;3.17;;;44.00;29.60;;;;;;5034157;28;20036;-53
2021/06/18 09:11:51;;;;;;;5.35;3.40;;;43.40;29.90;;;;;;5035140;28;20060;-51
2021/06/18 09:14:19;;;;;;;3.97;2.63;;;43.60;30.00;;;;;;5034926;28;20547;-53
2021/06/18 09:17:10;;;;;;;2.45;2.25;;;43.50;30.00;;;;;;5034846;28;20026;-54
2021/06/18 09:19:43;;;;;;;4.50;2.70;;;43.70;30.50;;;;;;5034907;28;20084;-53
2021/06/18 09:22:14;;;;;;;3.92;3.03;;;44.00;30.70;;;;;;5034671;28;20049;-55
2021/06/18 09:24:46;;;;;;;3.75;2.58;;;43.70;30.00;;;;;;5033890;28;20493;-55
2021/06/18 09:27:13;;;;;;;4.97;2.97;;;43.30;31.00;;;;;;5034640;28;20030;-50
2021/06/18 09:29:40;;;;;;;6.15;2.50;;;43.50;30.30;;;;;;5049101;28;20029;-52
2021/06/18 09:32:08;;;;;;;4.47;2.60;;;44.00;30.30;;;;;;5054446;28;20481;-51
2021/06/18 09:37:17;;;;;;;3.40;2.80;;;43.70;29.90;;;;;;5035208;28;20057;-55
2021/06/18 09:40:04;;;;;;;6.63;2.80;;;43.50;30.00;;;;;;5033689;28;20101;-50
2021/06/18 09:42:31;;;;;;;4.93;3.10;;;43.50;30.10;;;;;;5034379;28;20021;-48
2021/06/18 09:45:08;;;;;;;4.20;2.90;;;43.20;30.00;;;;;;5034548;28;20033;-48
2021/06/18 09:47:35;;;;;;;3.20;2.90;;;42.60;30.30;;;;;;5034332;28;20045;-51
2021/06/18 09:50:05;;;;;;;4.57;3.00;;;42.40;30.80;;;;;;5034212;28;20481;-51
2021/06/18 09:52:31;;;;;;;3.63;3.03;;;42.20;30.90;;;;;;5033278;28;20029;-50
2021/06/18 09:54:58;;;;;;;3.55;3.10;;;41.70;31.40;;;;;;5033430;28;20128;-51
2021/06/18 09:57:36;;;;;;;3.55;2.80;;;40.70;31.50;;;;;;5033929;28;20030;-53
2021/06/18 10:00:12;;;;;;;5.28;2.58;;;39.50;32.30;;;;;;5033888;28;20050;-53
2021/06/18 10:02:40;;;;;;;4.22;2.30;;;38.80;32.80;;;;;;5034025;28;20022;-51
2021/06/18 10:05:09;;;;;;;4.32;2.95;;;38.00;33.20;;;;;;5033971;28;20097;-50
2021/06/18 10:07:34;;;;;;;4.68;2.83;;;37.60;33.50;;;;;;5033969;28;20112;-50
2021/06/18 10:10:03;;;;;;;4.50;3.00;;;37.20;33.80;;;;;;5033156;28;20124;-51
2021/06/18 10:12:30;;;;;;;3.50;2.72;;;36.60;34.30;;;;;;5033562;28;20057;-52
2021/06/18 10:14:56;;;;;;;5.50;2.90;;;36.30;35.10;;;;;;5033986;28;20028;-54
2021/06/18 10:17:22;;;;;;;4.78;3.25;;;35.80;35.00;;;;;;5033521;28;20029;-49
2021/06/18 10:19:48;;;;;;;9.45;3.58;;;35.30;35.40;;;;;;5033733;28;20029;-48
2021/06/18 10:22:19;;;;;;;3.40;3.10;;;34.90;35.60;;;;;;5033589;28;20033;-51
2021/06/18 10:24:51;;;;;;;3.72;3.13;;;34.60;35.90;;;;;;5032778;28;20018;-55
2021/06/18 10:27:19;;;;;;;6.60;3.30;;;34.50;36.00;;;;;;5033385;28;20025;-51
2021/06/18 10:29:45;;;;;;;4.43;2.83;;;34.40;36.50;;;;;;5048775;28;20506;-47
2021/06/18 10:32:30;;;;;;;6.50;3.53;;;34.30;36.60;;;;;;5053245;28;20036;-51
2021/06/18 10:34:58;;;;;;;6.03;3.22;;;34.10;37.20;;;;;;5052938;28;20021;-51
2021/06/18 10:37:27;;;;;;;5.95;3.00;;;33.90;37.50;;;;;;5032997;28;20033;-46
2021/06/18 10:40:05;;;;;;;6.93;3.33;;;33.90;37.70;;;;;;5032477;28;20023;-47
2021/06/18 10:42:31;;;;;;;5.35;3.00;;;33.80;37.70;;;;;;5033122;28;20503;-49
2021/06/18 10:44:57;;;;;;;5.60;3.75;;;33.80;38.20;;;;;;5033323;28;20469;-47
2021/06/18 10:47:33;;;;;;;5.10;3.58;;;33.70;38.50;;;;;;5029201;28;20044;-52
2021/06/18 10:50:00;;;;;;;6.63;2.85;;;33.50;38.50;;;;;;5032870;28;20032;-49
2021/06/18 10:52:35;;;;;;;5.30;3.75;;;33.60;38.10;;;;;;5032708;28;20057;-46
2021/06/18 10:55:01;;;;;;;5.85;3.63;;;33.60;38.40;;;;;;5032045;28;20108;-46
2021/06/18 10:57:28;;;;;;;9.25;3.67;;;33.60;39.10;;;;;;5032713;28;20499;-47
2021/06/18 10:59:56;;;;;;;5.43;3.50;;;33.60;38.40;;;;;;5032744;28;20574;-50
2021/06/18 11:02:25;;;;;;;6.65;3.00;;;33.60;37.90;;;;;;5032570;28;20072;-52
2021/06/18 11:04:54;;;;;;;4.10;3.50;;;33.60;38.20;;;;;;5032723;28;20014;-52
2021/06/18 11:07:39;;;;;;;6.30;3.13;;;33.60;38.40;;;;;;5032460;28;20029;-51
2021/06/18 11:10:04;;;;;;;4.00;3.60;;;33.60;38.40;;;;;;5031699;28;20025;-47
2021/06/18 11:12:30;;;;;;;4.05;2.88;;;33.50;38.50;;;;;;5032600;28;20021;-49
2021/06/18 11:15:01;;;;;;;4.65;3.38;;;33.40;38.50;;;;;;5032455;28;20481;-49
2021/06/18 11:17:48;;;;;;;4.03;3.13;;;33.40;38.60;;;;;;5032444;28;20021;-52
2021/06/18 11:20:15;;;;;;;3.88;3.47;;;33.50;39.10;;;;;;5032408;28;20108;-47
2021/06/18 11:22:47;;;;;;;6.30;3.60;;;33.50;38.20;;;;;;5032386;28;20017;-48
2021/06/18 11:25:39;;;;;;;4.80;3.47;;;33.40;38.30;;;;;;5031304;28;20085;-53
2021/06/18 11:28:20;;;;;;;4.82;3.67;;;33.50;38.20;;;;;;5033518;28;20071;-50
2021/06/18 11:30:55;;;;;;;6.15;3.40;;;33.50;38.00;;;;;;5052337;28;20104;-52
2021/06/18 11:33:35;;;;;;;5.32;3.13;;;33.50;38.20;;;;;;5052241;28;20036;-50
2021/06/18 11:36:23;;;;;;;5.50;3.50;;;33.50;38.90;;;;;;5043103;28;20053;-54
2021/06/18 11:39:09;;;;;;;4.18;3.25;;;33.40;38.30;;;;;;5031454;28;20473;-50
2021/06/18 11:41:39;;;;;;;5.47;3.05;;;33.30;38.40;;;;;;5032575;28;20036;-49
2021/06/18 11:44:06;;;;;;;6.72;3.65;;;33.40;38.00;;;;;;5032375;28;20110;-51
2021/06/18 11:46:33;;;;;;;3.65;3.13;;;33.30;37.40;;;;;;5032312;28;20055;-51
2021/06/18 11:49:12;;;;;;;4.72;3.67;;;33.20;37.60;;;;;;5031100;28;20484;-48
2021/06/18 11:51:37;;;;;;;3.92;3.08;;;33.20;38.10;;;;;;5032246;28;20408;-52
2021/06/18 11:54:04;;;;;;;3.80;3.13;;;33.20;38.00;;;;;;5029762;28;20072;-51
2021/06/18 11:56:31;;;;;;;5.03;3.38;;;33.30;37.90;;;;;;5026254;28;20036;-55
2021/06/18 11:58:57;;;;;;;9.18;3.28;;;33.30;37.90;;;;;;5031778;28;20021;-50
2021/06/18 12:01:25;;;;;;;4.15;3.15;;;33.30;37.80;;;;;;5031781;28;20048;-54
2021/06/18 12:03:55;;;;;;;4.60;3.15;;;33.30;38.00;;;;;;5031105;28;20076;-49
2021/06/18 12:06:23;;;;;;;3.60;3.10;;;33.40;38.10;;;;;;5031970;28;20503;-53
2021/06/18 12:09:08;;;;;;;4.80;3.15;;;33.40;38.00;;;;;;5030604;28;20045;-51
2021/06/18 12:11:38;;;;;;;2.87;2.57;;;33.30;37.70;;;;;;5031613;28;20025;-50
2021/06/18 12:14:07;;;;;;;4.43;2.92;;;33.20;37.30;;;;;;5031698;28;20556;-52
2021/06/18 12:16:38;;;;;;;3.60;3.08;;;33.20;37.60;;;;;;5033683;28;20045;-52
2021/06/18 12:19:23;;;;;;;4.75;3.10;;;33.20;37.40;;;;;;5035811;28;20389;-55
2021/06/18 12:22:15;;;;;;;6.03;2.97;;;33.20;37.50;;;;;;5035402;28;20033;-48
2021/06/18 12:24:49;;;;;;;5.10;2.83;;;33.10;37.50;;;;;;5034219;28;20048;-50
2021/06/18 12:27:21;;;;;;;5.00;3.35;;;33.20;37.70;;;;;;5035561;28;20485;-54
2021/06/18 12:29:52;;;;;;;4.25;3.00;;;33.20;37.40;;;;;;5035384;28;20026;-49
2021/06/18 12:32:21;;;;;;;8.20;3.28;;;33.10;37.60;;;;;;5035259;28;20037;-50
2021/06/18 12:34:53;;;;;;;3.15;2.85;;;33.10;37.60;;;;;;5035479;28;20018;-52
2021/06/18 12:37:24;;;;;;;6.53;3.75;;;33.10;38.50;;;;;;5035412;28;20021;-52
2021/06/18 12:40:02;;;;;;;3.95;3.55;;;33.10;37.70;;;;;;5034727;28;20021;-53
2021/06/18 12:42:32;;;;;;;4.07;3.03;;;33.10;37.40;;;;;;5035185;28;20068;-49
2021/06/18 12:45:02;;;;;;;5.13;3.40;;;33.10;38.00;;;;;;5031647;28;20037;-54
2021/06/18 12:47:28;;;;;;;5.30;3.33;;;33.10;37.80;;;;;;5021730;28;20053;-49
2021/06/18 12:49:53;;;;;;;3.35;3.05;;;33.00;38.50;;;;;;5024409;28;20478;-50
2021/06/18 12:52:19;;;;;;;6.85;3.58;;;32.90;38.00;;;;;;5034191;28;20029;-50
2021/06/18 12:54:44;;;;;;;3.03;2.53;;;33.00;38.40;;;;;;5033285;28;20128;-47
2021/06/18 12:57:26;;;;;;;3.40;3.10;;;33.10;38.50;;;;;;5034249;28;20045;-48